createdAt,value
2019-02-22T00:00:54.078Z,21.50
2019-02-22T00:03:25.424Z,21.23
2019-02-22T00:05:56.331Z,22.50
2019-02-22T00:08:27.500Z,21.77
2019-02-22T00:10:58.385Z,20.33
2019-02-22T00:13:29.279Z,21.55
2019-02-22T00:15:59.878Z,21.33
2019-02-22T00:18:30.506Z,20.67
2019-02-22T00:21:01.384Z,20.43
2019-02-22T00:23:32.244Z,20.75
2019-02-22T00:26:02.809Z,21.17
2019-02-22T00:28:33.426Z,20.43
2019-02-22T00:31:04.286Z,21.30
2019-02-22T00:33:34.907Z,20.70
2019-02-22T00:36:05.558Z,22.90
2019-02-22T00:38:36.337Z,20.33
2019-02-22T00:41:06.908Z,20.70
2019-02-22T00:43:37.518Z,20.47
2019-02-22T00:46:08.279Z,21.00
2019-02-22T00:48:38.849Z,19.93
2019-02-22T00:51:09.758Z,20.90
2019-02-22T00:53:40.361Z,21.43
2019-02-22T00:56:11.686Z,20.77
2019-02-22T00:58:42.467Z,20.37
2019-02-22T01:01:13.359Z,19.87
2019-02-22T01:03:44.262Z,20.37
2019-02-22T01:06:15.406Z,19.95
2019-02-22T01:08:46.237Z,19.10
2019-02-22T01:11:17.493Z,20.02
2019-02-22T01:13:48.046Z,19.70
2019-02-22T01:16:18.654Z,19.27
2019-02-22T01:18:49.420Z,19.80
2019-02-22T01:21:20.018Z,19.27
2019-02-22T01:23:50.609Z,19.00
2019-02-22T01:26:21.796Z,18.77
2019-02-22T01:28:52.530Z,19.33
2019-02-22T01:31:23.373Z,20.00
2019-02-22T01:33:54.287Z,21.10
2019-02-22T01:36:25.538Z,21.07
2019-02-22T01:38:56.421Z,20.37
2019-02-22T01:41:27.616Z,21.57
2019-02-22T01:43:58.574Z,18.37
2019-02-22T01:46:29.176Z,21.37
2019-02-22T01:48:59.734Z,20.07
2019-02-22T01:51:30.525Z,20.63
2019-02-22T01:54:01.055Z,20.40
2019-02-22T01:56:32.029Z,19.60
2019-02-22T01:59:02.664Z,20.60
2019-02-22T02:01:33.525Z,19.57
2019-02-22T02:04:04.610Z,18.30
2019-02-22T02:06:35.455Z,19.27
2019-02-22T02:09:06.817Z,18.90
2019-02-22T02:11:37.535Z,19.37
2019-02-22T02:14:09.843Z,20.30
2019-02-22T02:16:40.538Z,20.50
2019-02-22T02:19:11.555Z,19.52
2019-02-22T02:21:42.411Z,19.03
2019-02-22T02:24:13.612Z,19.05
2019-02-22T02:26:44.524Z,19.30
2019-02-22T02:29:15.755Z,19.02
2019-02-22T02:31:46.705Z,20.70
2019-02-22T02:34:17.858Z,18.90
2019-02-22T02:36:48.590Z,18.83
2019-02-22T02:39:19.776Z,19.55
2019-02-22T02:41:50.574Z,19.00
2019-02-22T02:44:21.833Z,18.85
2019-02-22T02:46:52.682Z,18.60
2019-02-22T02:49:23.912Z,19.73
2019-02-22T02:51:54.563Z,18.97
2019-02-22T02:54:25.750Z,18.12
2019-02-22T02:56:56.610Z,19.97
2019-02-22T02:59:27.824Z,19.62
2019-02-22T03:01:59.098Z,18.50
2019-02-22T03:04:29.649Z,19.63
2019-02-22T03:07:10.999Z,20.25
2019-02-22T03:09:41.551Z,20.10
2019-02-22T03:12:12.160Z,21.17
2019-02-22T03:14:42.780Z,20.13
2019-02-22T03:17:13.937Z,19.73
2019-02-22T03:19:44.764Z,21.53
2019-02-22T03:22:15.720Z,20.63
2019-02-22T03:24:46.587Z,20.77
2019-02-22T03:27:17.258Z,19.47
2019-02-22T03:29:47.813Z,20.57
2019-02-22T03:32:18.992Z,22.22
2019-02-22T03:34:49.822Z,20.17
2019-02-22T03:37:20.685Z,20.15
2019-02-22T03:39:51.551Z,21.05
2019-02-22T03:42:22.247Z,21.05
2019-02-22T03:44:52.835Z,22.13
2019-02-22T03:47:23.922Z,21.70
2019-02-22T03:49:54.840Z,21.53
2019-02-22T03:52:38.752Z,20.08
2019-02-22T03:55:10.209Z,21.15
2019-02-22T03:57:40.743Z,21.53
2019-02-22T04:00:12.017Z,19.10
2019-02-22T04:02:42.660Z,19.13
2019-02-22T04:05:13.935Z,22.55
2019-02-22T04:07:44.917Z,21.33
2019-02-22T04:10:15.769Z,20.50
2019-02-22T04:12:46.666Z,21.10
2019-02-22T04:15:17.877Z,20.75
2019-02-22T04:17:48.697Z,21.80
2019-02-22T04:20:19.601Z,21.00
2019-02-22T04:22:50.207Z,21.07
2019-02-22T04:25:20.834Z,20.63
2019-02-22T04:27:51.711Z,22.23
2019-02-22T04:30:22.289Z,21.50
2019-02-22T04:32:52.984Z,22.23
2019-02-22T04:35:24.126Z,22.15
2019-02-22T04:37:54.913Z,21.83
2019-02-22T04:40:25.795Z,21.42
2019-02-22T04:42:56.412Z,23.07
2019-02-22T04:45:27.272Z,23.00
2019-02-22T04:47:57.882Z,22.40
2019-02-22T04:50:29.168Z,23.30
2019-02-22T04:52:59.933Z,22.67
2019-02-22T04:55:30.503Z,22.70
2019-02-22T04:58:01.094Z,24.37
2019-02-22T05:00:32.020Z,25.37
2019-02-22T05:03:02.868Z,24.67
2019-02-22T05:05:33.817Z,25.60
2019-02-22T05:08:04.593Z,25.20
2019-02-22T05:10:35.271Z,26.30
2019-02-22T05:13:05.853Z,27.23
2019-02-22T05:15:36.590Z,28.37
2019-02-22T05:18:07.220Z,26.57
2019-02-22T05:20:38.141Z,30.33
2019-02-22T05:23:10.210Z,27.37
2019-02-22T05:25:40.929Z,28.00
2019-02-22T05:28:11.822Z,28.90
2019-02-22T05:30:42.414Z,27.57
2019-02-22T05:33:13.051Z,27.70
2019-02-22T05:35:43.775Z,27.53
2019-02-22T05:38:14.450Z,26.73
2019-02-22T05:40:45.118Z,27.77
2019-02-22T05:43:15.947Z,28.90
2019-02-22T05:45:46.876Z,28.07
2019-02-22T05:48:17.785Z,28.47
2019-02-22T05:50:48.398Z,28.47
2019-02-22T05:53:19.300Z,28.00
2019-02-22T05:55:50.122Z,29.80
2019-02-22T05:58:21.049Z,29.17
2019-02-22T06:00:55.268Z,29.47
2019-02-22T06:03:26.125Z,27.55
2019-02-22T06:05:56.958Z,29.03
2019-02-22T06:08:28.124Z,35.43
2019-02-22T06:10:59.028Z,30.20
2019-02-22T06:13:29.655Z,28.40
2019-02-22T06:16:00.250Z,28.17
2019-02-22T06:18:31.013Z,26.50
2019-02-22T06:21:01.956Z,29.27
2019-02-22T06:23:32.838Z,28.40
2019-02-22T06:26:03.458Z,27.90
2019-02-22T06:28:34.102Z,28.90
2019-02-22T06:31:05.018Z,31.40
2019-02-22T06:33:35.946Z,29.65
2019-02-22T06:36:06.564Z,32.70
2019-02-22T06:38:37.122Z,31.63
2019-02-22T06:41:07.724Z,30.77
2019-02-22T06:43:38.307Z,31.70
2019-02-22T06:46:10.555Z,30.45
2019-02-22T06:48:41.338Z,33.53
2019-02-22T06:51:12.289Z,30.93
2019-02-22T06:53:43.068Z,29.77
2019-02-22T06:56:14.224Z,28.92
2019-02-22T06:58:45.171Z,29.43
2019-02-22T07:01:16.077Z,29.18
2019-02-22T07:03:46.633Z,28.50
2019-02-22T07:06:17.484Z,28.97
2019-02-22T07:08:48.137Z,29.77
2019-02-22T07:11:26.282Z,28.75
2019-02-22T07:13:57.213Z,28.93
2019-02-22T07:16:27.813Z,28.50
2019-02-22T07:18:58.426Z,30.30
2019-02-22T07:21:43.751Z,28.87
2019-02-22T07:24:02.738Z,28.63
2019-02-22T07:26:33.394Z,29.70
2019-02-22T07:29:04.337Z,30.63
2019-02-22T07:31:35.239Z,28.40
2019-02-22T07:34:06.069Z,28.03
2019-02-22T07:36:36.724Z,29.57
2019-02-22T07:39:08.115Z,29.40
2019-02-22T07:41:39.017Z,28.73
2019-02-22T07:44:10.463Z,28.35
2019-02-22T07:46:41.301Z,27.73
2019-02-22T07:49:14.330Z,28.37
2019-02-22T07:51:45.113Z,30.17
2019-02-22T07:54:16.271Z,29.10
2019-02-22T07:56:47.125Z,27.67
2019-02-22T07:59:17.734Z,27.55
2019-02-22T08:01:48.386Z,28.47
2019-02-22T08:04:19.216Z,27.27
2019-02-22T08:06:50.144Z,25.77
2019-02-22T08:09:20.770Z,27.75
2019-02-22T08:11:51.437Z,26.43
2019-02-22T08:14:22.313Z,26.07
2019-02-22T08:16:52.978Z,27.30
2019-02-22T08:19:23.617Z,27.93
2019-02-22T08:21:54.251Z,26.40
2019-02-22T08:24:25.958Z,26.80
2019-02-22T08:26:56.970Z,24.27
2019-02-22T08:29:27.852Z,25.70
2019-02-22T08:31:58.476Z,25.47
2019-02-22T08:34:29.386Z,24.87
2019-02-22T08:37:00.207Z,23.93
2019-02-22T08:39:30.854Z,24.30
2019-02-22T08:42:01.560Z,24.97
2019-02-22T08:44:32.418Z,23.37
2019-02-22T08:47:03.028Z,23.77
2019-02-22T08:49:33.614Z,21.10
2019-02-22T08:52:04.292Z,22.53
2019-02-22T08:54:46.265Z,20.43
2019-02-22T08:57:07.565Z,21.27
2019-02-22T08:59:38.258Z,18.67
2019-02-22T09:02:10.668Z,17.38
2019-02-22T09:04:41.411Z,18.57
2019-02-22T09:07:12.248Z,17.40
2019-02-22T09:09:43.304Z,18.27
2019-02-22T09:12:14.596Z,18.00
2019-02-22T09:14:45.231Z,16.97
2019-02-22T09:17:16.190Z,16.63
2019-02-22T09:19:46.832Z,16.47
2019-02-22T09:22:22.782Z,17.00
2019-02-22T09:24:50.359Z,16.70
2019-02-22T09:27:21.056Z,17.20
2019-02-22T09:29:58.803Z,15.93
2019-02-22T09:32:24.557Z,15.32
2019-02-22T09:34:55.475Z,16.77
2019-02-22T09:37:26.439Z,15.83
2019-02-22T09:39:57.442Z,15.73
2019-02-22T09:42:28.645Z,14.95
2019-02-22T09:44:59.524Z,15.37
2019-02-22T09:47:30.457Z,14.20
2019-02-22T09:50:01.338Z,14.90
2019-02-22T09:52:31.949Z,14.07
2019-02-22T09:55:02.579Z,13.93
2019-02-22T09:57:33.343Z,12.87
2019-02-22T10:00:04.010Z,14.13
2019-02-22T10:02:34.654Z,15.00
2019-02-22T10:05:05.753Z,14.10
2019-02-22T10:07:36.620Z,13.00
2019-02-22T10:10:08.743Z,13.17
2019-02-22T10:12:39.413Z,12.87
2019-02-22T10:15:10.936Z,12.45
2019-02-22T10:17:41.533Z,11.97
2019-02-22T10:20:12.728Z,12.28
2019-02-22T10:22:43.604Z,12.83
2019-02-22T10:25:14.581Z,13.28
2019-02-22T10:27:45.508Z,11.97
2019-02-22T10:30:16.742Z,9.18
2019-02-22T10:32:50.011Z,9.60
2019-02-22T10:35:21.331Z,9.98
2019-02-22T10:37:51.933Z,8.80
2019-02-22T10:40:22.617Z,7.10
2019-02-22T10:42:53.571Z,7.80
2019-02-22T10:45:24.833Z,8.10
2019-02-22T10:47:55.696Z,7.93
2019-02-22T10:50:26.488Z,8.13
2019-02-22T10:53:02.178Z,8.73
2019-02-22T10:55:29.840Z,7.87
2019-02-22T10:58:00.557Z,7.60
2019-02-22T11:00:31.563Z,8.03
2019-02-22T11:03:02.526Z,6.93
2019-02-22T11:05:33.200Z,5.87
2019-02-22T11:08:03.824Z,6.23
2019-02-22T11:10:34.931Z,5.40
2019-02-22T11:13:05.545Z,5.57
2019-02-22T11:15:36.421Z,5.40
2019-02-22T11:18:07.250Z,4.63
2019-02-22T11:20:40.269Z,5.80
2019-02-22T11:23:10.967Z,5.70
2019-02-22T11:25:41.801Z,5.70
2019-02-22T11:28:12.632Z,6.37
2019-02-22T11:30:43.670Z,5.85
2019-02-22T11:33:14.671Z,5.53
2019-02-22T11:35:45.606Z,5.37
2019-02-22T11:38:16.543Z,5.07
2019-02-22T11:40:47.225Z,4.57
2019-02-22T11:43:17.865Z,5.00
2019-02-22T11:45:49.984Z,5.77
2019-02-22T11:48:20.920Z,4.65
2019-02-22T11:50:51.574Z,4.83
2019-02-22T11:53:22.327Z,3.90
2019-02-22T11:55:52.946Z,3.73
2019-02-22T11:58:23.735Z,4.13
2019-02-22T12:00:54.652Z,4.10
2019-02-22T12:03:25.415Z,3.60
2019-02-22T12:05:56.350Z,3.67
2019-02-22T12:08:26.939Z,2.95
2019-02-22T12:10:57.715Z,3.23
2019-02-22T12:13:31.776Z,3.10
2019-02-22T12:16:01.292Z,2.60
2019-02-22T12:18:31.943Z,2.63
2019-02-22T12:21:03.292Z,2.67
2019-02-22T12:23:33.930Z,3.27
2019-02-22T12:26:04.822Z,4.60
2019-02-22T12:28:36.387Z,3.40
2019-02-22T12:31:08.328Z,4.00
2019-02-22T12:33:39.069Z,3.70
2019-02-22T12:36:10.969Z,4.00
2019-02-22T12:38:41.793Z,3.47
2019-02-22T12:41:12.681Z,4.40
2019-02-22T12:43:43.361Z,4.10
2019-02-22T12:46:14.254Z,4.30
2019-02-22T12:48:44.919Z,4.10
2019-02-22T12:51:15.819Z,3.97
2019-02-22T12:53:48.587Z,4.07
2019-02-22T12:56:21.543Z,4.13
2019-02-22T12:58:51.798Z,4.10
2019-02-22T13:01:24.634Z,4.15
2019-02-22T13:03:55.586Z,3.83
2019-02-22T13:06:26.520Z,3.70
2019-02-22T13:08:57.224Z,3.50
2019-02-22T13:11:29.305Z,3.27
2019-02-22T13:14:00.014Z,3.07
2019-02-22T13:16:31.442Z,3.10
2019-02-22T13:19:02.174Z,3.20
2019-02-22T13:21:32.901Z,3.43
2019-02-22T13:24:04.042Z,3.10
2019-02-22T13:26:34.942Z,2.87
2019-02-22T13:29:05.839Z,2.53
2019-02-22T13:31:36.738Z,2.25
2019-02-22T13:34:07.402Z,2.10
2019-02-22T13:36:38.126Z,2.33
2019-02-22T13:39:08.984Z,2.67
2019-02-22T13:41:39.703Z,2.40
2019-02-22T13:44:11.162Z,2.20
2019-02-22T13:46:42.255Z,2.83
2019-02-22T13:49:13.131Z,2.57
2019-02-22T13:51:44.099Z,2.80
2019-02-22T13:54:14.928Z,2.03
2019-02-22T13:56:45.866Z,2.37
2019-02-22T13:59:17.120Z,2.35
2019-02-22T14:01:48.083Z,3.00
2019-02-22T14:04:18.977Z,2.27
2019-02-22T14:06:49.931Z,2.40
2019-02-22T14:09:21.131Z,2.87
2019-02-22T14:11:51.952Z,2.50
2019-02-22T14:14:23.206Z,2.60
2019-02-22T14:16:54.263Z,3.03
2019-02-22T14:19:25.051Z,2.73
2019-02-22T14:21:55.989Z,2.90
2019-02-22T14:24:27.205Z,2.72
2019-02-22T14:26:58.072Z,2.83
2019-02-22T14:29:29.282Z,2.62
2019-02-22T14:32:00.073Z,3.17
2019-02-22T14:34:31.349Z,3.30
2019-02-22T14:37:02.232Z,2.80
2019-02-22T14:39:32.952Z,2.90
2019-02-22T14:42:03.618Z,3.00
2019-02-22T14:44:34.543Z,3.23
2019-02-22T14:47:05.300Z,2.90
2019-02-22T14:49:36.196Z,3.20
2019-02-22T14:52:07.032Z,3.57
2019-02-22T14:54:38.050Z,4.00
2019-02-22T14:57:09.106Z,3.23
2019-02-22T14:59:40.031Z,2.97
2019-02-22T15:02:11.441Z,3.50
2019-02-22T15:04:42.377Z,3.10
2019-02-22T15:07:13.160Z,2.93
2019-02-22T15:09:44.078Z,2.70
2019-02-22T15:12:15.065Z,3.08
2019-02-22T15:14:46.009Z,3.40
2019-02-22T15:17:42.079Z,3.30
2019-02-22T15:20:13.364Z,2.80
2019-02-22T15:22:44.193Z,3.47
2019-02-22T15:25:15.178Z,3.50
2019-02-22T15:27:46.143Z,3.40
2019-02-22T15:30:17.598Z,2.87
2019-02-22T15:32:48.222Z,3.30
2019-02-22T15:35:23.349Z,2.90
2019-02-22T15:37:54.512Z,2.93
2019-02-22T15:40:25.293Z,2.93
2019-02-22T15:42:56.225Z,2.80
2019-02-22T15:45:27.683Z,2.87
2019-02-22T15:47:58.683Z,2.73
2019-02-22T15:50:30.075Z,2.80
2019-02-22T15:53:00.708Z,3.13
2019-02-22T15:55:31.373Z,3.77
2019-02-22T15:58:02.250Z,3.30
2019-02-22T16:00:33.468Z,2.73
2019-02-22T16:03:04.216Z,3.10
2019-02-22T16:05:37.847Z,2.77
2019-02-22T16:08:08.470Z,4.23
2019-02-22T16:10:39.380Z,3.47
2019-02-22T16:13:10.142Z,4.50
2019-02-22T16:15:41.543Z,3.67
2019-02-22T16:18:12.445Z,3.00
2019-02-22T16:20:43.316Z,3.40
2019-02-22T16:23:14.265Z,2.90
2019-02-22T16:25:45.203Z,3.60
2019-02-22T16:28:15.942Z,4.12
2019-02-22T16:30:46.711Z,4.17
2019-02-22T16:33:18.395Z,3.63
2019-02-22T16:35:49.068Z,2.80
2019-02-22T16:38:19.795Z,3.12
2019-02-22T16:40:50.659Z,4.17
2019-02-22T16:43:21.769Z,9.90
2019-02-22T16:45:52.426Z,4.40
2019-02-22T16:48:23.377Z,3.65
2019-02-22T16:50:54.223Z,3.50
2019-02-22T16:53:25.611Z,3.80
2019-02-22T16:55:56.295Z,2.90
2019-02-22T16:58:27.460Z,3.67
2019-02-22T17:00:58.545Z,4.07
2019-02-22T17:03:29.707Z,4.03
2019-02-22T17:06:00.431Z,3.37
2019-02-22T17:08:31.321Z,4.23
2019-02-22T17:11:01.988Z,4.67
2019-02-22T17:13:34.477Z,4.37
2019-02-22T17:16:05.385Z,3.43
2019-02-22T17:18:36.537Z,3.57
2019-02-22T17:21:07.275Z,4.27
2019-02-22T17:23:38.338Z,3.67
2019-02-22T17:26:13.432Z,3.87
2019-02-22T17:28:44.090Z,3.40
2019-02-22T17:31:14.760Z,3.90
2019-02-22T17:33:45.427Z,3.47
2019-02-22T17:36:26.512Z,3.40
2019-02-22T17:38:48.761Z,3.90
2019-02-22T17:41:19.489Z,4.40
2019-02-22T17:43:50.330Z,4.53
2019-02-22T17:46:21.551Z,4.45
2019-02-22T17:48:52.416Z,4.23
2019-02-22T17:51:23.751Z,4.92
2019-02-22T17:53:54.521Z,4.20
2019-02-22T17:56:25.471Z,3.73
2019-02-22T17:58:56.451Z,2.97
2019-02-22T18:01:28.087Z,3.75
2019-02-22T18:03:58.755Z,4.20
2019-02-22T18:08:59.585Z,3.93
2019-02-22T18:11:30.477Z,3.30
2019-02-22T18:14:20.469Z,3.87
2019-02-22T18:16:51.419Z,3.72
2019-02-22T18:19:22.013Z,3.47
2019-02-22T18:21:52.634Z,3.73
2019-02-22T18:24:23.900Z,3.12
2019-02-22T18:26:54.558Z,3.10
2019-02-22T18:29:34.995Z,3.20
2019-02-22T18:31:58.399Z,3.08
2019-02-22T18:34:30.554Z,3.67
2019-02-22T18:37:01.122Z,3.40
2019-02-22T18:39:31.786Z,3.80
2019-02-22T18:42:02.402Z,4.17
2019-02-22T18:44:33.294Z,4.28
2019-02-22T18:47:03.915Z,4.67
2019-02-22T18:49:34.511Z,4.80
2019-02-22T18:52:05.186Z,3.93
2019-02-22T18:54:35.880Z,4.70
2019-02-22T18:57:06.473Z,5.13
2019-02-22T18:59:37.383Z,5.33
2019-02-22T19:02:09.104Z,5.13
2019-02-22T19:04:39.746Z,6.13
2019-02-22T19:07:11.937Z,3.72
2019-02-22T19:09:42.558Z,4.20
2019-02-22T19:12:13.833Z,5.00
2019-02-22T19:14:44.486Z,4.00
2019-02-22T19:17:15.746Z,4.08
2019-02-22T19:19:46.639Z,5.13
2019-02-22T19:22:17.299Z,6.00
2019-02-22T19:24:48.053Z,5.57
2019-02-22T19:27:18.707Z,5.73
2019-02-22T19:29:49.588Z,4.97
2019-02-22T19:32:20.620Z,4.17
2019-02-22T19:34:51.586Z,3.90
2019-02-22T19:37:22.329Z,3.73
2019-02-22T19:39:52.979Z,3.63
2019-02-22T19:42:23.943Z,4.37
2019-02-22T19:44:54.708Z,3.83
2019-02-22T19:47:25.840Z,3.42
2019-02-22T19:49:56.907Z,3.37
2019-02-22T19:52:27.700Z,3.80
2019-02-22T19:54:58.614Z,3.50
2019-02-22T19:57:29.317Z,3.50
2019-02-22T20:00:01.030Z,4.87
2019-02-22T20:02:31.766Z,4.50
2019-02-22T20:05:02.558Z,4.20
2019-02-22T20:07:33.176Z,4.10
2019-02-22T20:10:03.933Z,4.37
2019-02-22T20:12:34.640Z,4.17
2019-02-22T20:15:06.135Z,4.00
2019-02-22T20:17:36.884Z,4.20
2019-02-22T20:20:10.206Z,4.13
2019-02-22T20:22:40.867Z,4.67
2019-02-22T20:25:12.298Z,3.67
2019-02-22T20:27:42.951Z,4.37
2019-02-22T20:30:15.576Z,4.03
2019-02-22T20:32:46.226Z,4.20
2019-02-22T20:35:19.724Z,3.77
2019-02-22T20:37:53.153Z,3.63
2019-02-22T20:40:22.841Z,4.60
2019-02-22T20:42:53.706Z,4.37
2019-02-22T20:45:24.534Z,4.22
2019-02-22T20:48:04.757Z,3.87
2019-02-22T20:50:28.038Z,4.15
2019-02-22T20:52:58.961Z,3.90
2019-02-22T20:55:29.798Z,3.13
2019-02-22T20:58:00.745Z,3.87
2019-02-22T21:00:31.872Z,4.10
2019-02-22T21:03:02.954Z,4.10
2019-02-22T21:05:33.893Z,3.97
2019-02-22T21:08:04.889Z,3.83
2019-02-22T21:10:54.884Z,4.00
2019-02-22T21:13:28.164Z,3.62
2019-02-22T21:15:58.724Z,4.00
2019-02-22T21:18:29.472Z,3.67
2019-02-22T21:21:01.413Z,3.63
2019-02-22T21:23:32.072Z,3.77
2019-02-22T21:26:02.789Z,3.70
2019-02-22T21:28:33.687Z,3.60
2019-02-22T21:31:04.307Z,4.03
2019-02-22T21:33:34.980Z,3.67
2019-02-22T21:36:05.836Z,3.93
2019-02-22T21:38:36.762Z,4.03
2019-02-22T21:41:07.469Z,3.23
2019-02-22T21:43:38.182Z,4.03
2019-02-22T21:46:09.008Z,3.80
2019-02-22T21:48:40.068Z,4.30
2019-02-22T21:51:10.907Z,4.30
2019-02-22T21:53:41.861Z,4.62
2019-02-22T21:56:12.809Z,4.03
2019-02-22T21:58:43.813Z,4.33
2019-02-22T22:01:14.522Z,4.97
2019-02-22T22:03:45.466Z,5.10
2019-02-22T22:06:16.138Z,4.57
2019-02-22T22:08:46.797Z,4.67
2019-02-22T22:11:18.042Z,5.50
2019-02-22T22:13:48.936Z,4.73
2019-02-22T22:16:19.861Z,4.17
2019-02-22T22:18:50.840Z,5.30
2019-02-22T22:21:21.478Z,5.37
2019-02-22T22:23:52.142Z,5.20
2019-02-22T22:26:23.060Z,5.90
2019-02-22T22:28:53.954Z,5.85
2019-02-22T22:31:24.864Z,6.80
2019-02-22T22:33:55.796Z,6.08
2019-02-22T22:36:26.374Z,6.92
2019-02-22T22:38:57.020Z,6.70
2019-02-22T22:41:28.188Z,7.28
2019-02-22T22:43:59.159Z,6.30
2019-02-22T22:46:36.775Z,4.65
2019-02-22T22:49:02.404Z,5.17
2019-02-22T22:51:33.129Z,7.20
2019-02-22T22:54:03.895Z,6.90
2019-02-22T22:56:34.870Z,8.00
2019-02-22T22:59:05.556Z,6.87
2019-02-22T23:01:37.155Z,7.13
2019-02-22T23:04:08.033Z,6.93
2019-02-22T23:06:38.949Z,6.27
2019-02-22T23:09:18.671Z,6.47
2019-02-22T23:11:49.311Z,6.80
2019-02-22T23:14:20.378Z,7.42
2019-02-22T23:16:51.096Z,6.50
2019-02-22T23:19:22.029Z,5.20
2019-02-22T23:21:52.970Z,6.73
2019-02-22T23:24:23.880Z,7.33
2019-02-22T23:26:54.500Z,5.80
2019-02-22T23:29:25.465Z,6.53
2019-02-22T23:31:56.150Z,7.03
2019-02-22T23:34:27.097Z,6.27
2019-02-22T23:36:58.002Z,6.93
2019-02-22T23:39:28.601Z,6.17
2019-02-22T23:41:59.228Z,6.57
2019-02-22T23:44:30.167Z,7.00
2019-02-22T23:47:01.019Z,6.53
2019-02-22T23:49:31.658Z,7.10
2019-02-22T23:52:02.386Z,5.97
2019-02-22T23:54:33.019Z,6.13
2019-02-22T23:57:03.962Z,6.95
2019-02-22T23:59:34.571Z,6.70
